createdAt,value
2018-09-05T00:00:22.597Z,26.30
2018-09-05T00:02:50.966Z,21.33
2018-09-05T00:05:19.268Z,20.80
2018-09-05T00:07:47.537Z,19.97
2018-09-05T00:10:15.825Z,22.50
2018-09-05T00:12:44.127Z,24.67
2018-09-05T00:15:12.402Z,21.93
2018-09-05T00:17:40.678Z,20.30
2018-09-05T00:20:08.949Z,23.03
2018-09-05T00:22:37.241Z,23.83
2018-09-05T00:25:05.718Z,24.07
2018-09-05T00:27:33.969Z,23.17
2018-09-05T00:30:02.254Z,22.23
2018-09-05T00:32:30.557Z,21.30
2018-09-05T00:34:58.889Z,20.33
2018-09-05T00:37:27.252Z,20.30
2018-09-05T00:39:55.589Z,21.30
2018-09-05T00:42:23.913Z,20.60
2018-09-05T00:44:52.329Z,22.27
2018-09-05T00:47:20.821Z,21.20
2018-09-05T00:49:49.293Z,24.17
2018-09-05T00:52:18.128Z,23.10
2018-09-05T00:54:46.472Z,22.70
2018-09-05T00:57:14.758Z,23.10
2018-09-05T00:59:43.030Z,22.90
2018-09-05T01:02:11.365Z,22.90
2018-09-05T01:04:39.640Z,21.33
2018-09-05T01:07:19.473Z,20.17
2018-09-05T01:09:47.990Z,19.70
2018-09-05T01:12:16.737Z,21.43
2018-09-05T01:14:44.986Z,20.60
2018-09-05T01:17:13.545Z,20.90
2018-09-05T01:19:41.889Z,20.37
2018-09-05T01:22:10.357Z,21.30
2018-09-05T01:24:38.954Z,21.00
2018-09-05T01:27:08.629Z,21.87
2018-09-05T01:29:38.113Z,21.23
2018-09-05T01:32:07.358Z,20.63
2018-09-05T01:34:35.710Z,22.20
2018-09-05T01:37:04.272Z,25.07
2018-09-05T01:39:32.524Z,22.43
2018-09-05T01:42:00.848Z,21.87
2018-09-05T01:44:29.105Z,21.97
2018-09-05T01:46:57.373Z,23.60
2018-09-05T01:49:25.670Z,22.27
2018-09-05T01:51:57.970Z,24.50
2018-09-05T01:54:26.277Z,23.90
2018-09-05T01:56:55.327Z,24.17
2018-09-05T01:59:24.294Z,24.83
2018-09-05T02:01:52.611Z,25.00
2018-09-05T02:04:21.107Z,22.77
2018-09-05T02:06:49.370Z,24.30
2018-09-05T02:09:17.674Z,23.73
2018-09-05T02:11:45.964Z,23.23
2018-09-05T02:14:20.518Z,24.00
2018-09-05T02:16:48.782Z,24.17
2018-09-05T02:19:17.057Z,25.80
2018-09-05T02:21:45.365Z,29.67
2018-09-05T02:24:13.582Z,30.30
2018-09-05T02:26:41.859Z,32.90
2018-09-05T02:29:10.151Z,32.70
2018-09-05T02:31:38.421Z,32.87
2018-09-05T02:34:06.726Z,33.07
2018-09-05T02:36:34.985Z,30.33
2018-09-05T02:39:03.454Z,30.37
2018-09-05T02:41:31.730Z,32.37
2018-09-05T02:44:05.453Z,30.63
2018-09-05T02:46:33.713Z,31.03
2018-09-05T02:49:02.000Z,34.90
2018-09-05T02:51:30.331Z,32.67
2018-09-05T02:53:58.588Z,32.70
2018-09-05T02:56:26.897Z,32.63
2018-09-05T02:58:55.169Z,33.03
2018-09-05T03:01:23.437Z,33.43
2018-09-05T03:03:51.789Z,32.57
2018-09-05T03:06:20.097Z,31.87
2018-09-05T03:08:48.386Z,30.37
2018-09-05T03:11:16.714Z,31.93
2018-09-05T03:13:44.968Z,29.70
2018-09-05T03:16:13.265Z,30.97
2018-09-05T03:18:41.524Z,30.60
2018-09-05T03:21:09.816Z,29.97
2018-09-05T03:23:38.194Z,28.23
2018-09-05T03:26:06.405Z,28.27
2018-09-05T03:28:34.707Z,29.47
2018-09-05T03:31:02.983Z,27.23
2018-09-05T03:33:31.294Z,27.23
2018-09-05T03:35:59.742Z,28.00
2018-09-05T03:38:28.030Z,27.27
2018-09-05T03:40:56.498Z,26.27
2018-09-05T03:43:24.744Z,26.27
2018-09-05T03:45:53.021Z,26.27
2018-09-05T03:48:21.557Z,27.50
2018-09-05T03:50:54.017Z,27.30
2018-09-05T03:53:22.332Z,26.60
2018-09-05T03:55:50.702Z,25.57
2018-09-05T03:58:19.003Z,26.50
2018-09-05T04:00:47.242Z,27.70
2018-09-05T04:03:15.538Z,26.53
2018-09-05T04:05:43.785Z,27.27
2018-09-05T04:08:12.072Z,26.17
2018-09-05T04:10:40.457Z,25.30
2018-09-05T04:13:08.744Z,25.97
2018-09-05T04:15:37.078Z,25.93
2018-09-05T04:18:05.463Z,26.87
2018-09-05T04:20:33.773Z,26.50
2018-09-05T04:23:02.097Z,26.50
2018-09-05T04:25:30.645Z,27.23
2018-09-05T04:27:58.906Z,26.60
2018-09-05T04:30:27.164Z,27.07
2018-09-05T04:32:55.425Z,26.13
2018-09-05T04:35:23.731Z,25.87
2018-09-05T04:37:52.125Z,24.83
2018-09-05T04:40:20.430Z,27.97
2018-09-05T04:42:48.712Z,25.83
2018-09-05T04:45:17.008Z,26.37
2018-09-05T04:47:45.267Z,27.63
2018-09-05T04:50:13.577Z,27.03
2018-09-05T04:52:41.913Z,27.47
2018-09-05T04:55:10.228Z,27.50
2018-09-05T04:57:38.473Z,26.17
2018-09-05T05:00:07.360Z,28.40
2018-09-05T05:02:35.678Z,27.63
2018-09-05T05:05:03.981Z,27.70
2018-09-05T05:07:32.249Z,28.20
2018-09-05T05:10:00.528Z,26.07
2018-09-05T05:12:28.812Z,26.20
2018-09-05T05:14:57.113Z,26.83
2018-09-05T05:17:25.389Z,27.00
2018-09-05T05:19:53.629Z,24.30
2018-09-05T05:22:21.906Z,24.40
2018-09-05T05:24:50.278Z,24.63
2018-09-05T05:27:18.582Z,24.60
2018-09-05T05:29:46.944Z,24.40
2018-09-05T05:32:15.222Z,24.10
2018-09-05T05:34:43.522Z,23.07
2018-09-05T05:37:11.773Z,24.43
2018-09-05T05:39:40.029Z,23.13
2018-09-05T05:42:08.317Z,21.57
2018-09-05T05:44:36.770Z,23.70
2018-09-05T05:47:05.092Z,22.20
2018-09-05T05:49:33.361Z,22.10
2018-09-05T05:52:01.624Z,23.07
2018-09-05T05:54:29.909Z,21.63
2018-09-05T05:56:58.145Z,21.70
2018-09-05T05:59:26.565Z,22.87
2018-09-05T06:01:54.849Z,24.13
2018-09-05T06:04:23.133Z,20.27
2018-09-05T06:06:51.429Z,23.97
2018-09-05T06:09:19.668Z,21.80
2018-09-05T06:11:48.032Z,24.37
2018-09-05T06:14:16.561Z,23.97
2018-09-05T06:16:44.798Z,24.90
2018-09-05T06:19:13.085Z,24.23
2018-09-05T06:21:41.360Z,24.30
2018-09-05T06:24:09.684Z,25.17
2018-09-05T06:26:37.928Z,21.70
2018-09-05T06:29:06.249Z,26.57
2018-09-05T06:31:35.067Z,25.20
2018-09-05T06:34:03.404Z,26.10
2018-09-05T06:36:31.636Z,24.90
2018-09-05T06:39:00.029Z,24.53
2018-09-05T06:41:28.269Z,24.50
2018-09-05T06:43:56.519Z,21.97
2018-09-05T06:46:24.757Z,23.60
2018-09-05T06:48:56.015Z,23.03
2018-09-05T06:51:24.291Z,22.70
2018-09-05T06:53:52.832Z,24.13
2018-09-05T06:56:21.149Z,22.63
2018-09-05T06:58:49.434Z,20.57
2018-09-05T07:01:17.792Z,20.57
2018-09-05T07:03:46.089Z,20.40
2018-09-05T07:06:14.360Z,19.20
2018-09-05T07:08:42.669Z,17.83
2018-09-05T07:11:10.948Z,16.10
2018-09-05T07:13:39.201Z,16.63
2018-09-05T07:16:07.493Z,17.17
2018-09-05T07:18:35.969Z,16.80
2018-09-05T07:21:07.056Z,16.20
2018-09-05T07:23:32.527Z,16.57
2018-09-05T07:26:00.931Z,17.83
2018-09-05T07:28:29.214Z,16.83
2018-09-05T07:30:57.565Z,16.73
2018-09-05T07:33:25.991Z,16.50
2018-09-05T07:35:54.362Z,15.67
2018-09-05T07:38:22.632Z,16.33
2018-09-05T07:40:50.905Z,17.53
2018-09-05T07:43:19.292Z,16.53
2018-09-05T07:45:47.577Z,16.07
2018-09-05T07:48:15.941Z,16.20
2018-09-05T07:50:44.267Z,16.67
2018-09-05T07:53:12.465Z,16.13
2018-09-05T07:58:15.389Z,15.20
2018-09-05T08:00:43.644Z,15.93
2018-09-05T08:03:11.955Z,14.20
2018-09-05T08:05:40.260Z,15.00
2018-09-05T08:08:08.533Z,13.70
2018-09-05T08:10:36.881Z,14.97
2018-09-05T08:13:05.262Z,15.80
2018-09-05T08:22:33.497Z,15.33
2018-09-05T08:25:01.756Z,15.10
2018-09-05T08:27:30.021Z,14.70
2018-09-05T08:29:58.338Z,14.90
2018-09-05T08:32:26.612Z,13.93
2018-09-05T08:34:55.032Z,13.13
2018-09-05T08:37:23.388Z,13.23
2018-09-05T08:39:51.594Z,13.47
2018-09-05T08:42:19.925Z,11.13
2018-09-05T08:44:48.524Z,12.07
2018-09-05T08:47:16.486Z,11.77
2018-09-05T08:49:44.746Z,10.73
2018-09-05T08:52:13.113Z,10.87
2018-09-05T08:54:41.380Z,10.43
2018-09-05T08:57:09.690Z,8.83
2018-09-05T08:59:37.953Z,9.37
2018-09-05T09:02:06.317Z,9.30
2018-09-05T09:04:34.609Z,9.03
2018-09-05T09:07:02.902Z,8.57
2018-09-05T09:09:31.134Z,8.53
2018-09-05T09:11:59.390Z,7.67
2018-09-05T09:14:27.667Z,7.93
2018-09-05T09:16:55.945Z,7.50
2018-09-05T09:19:24.241Z,7.37
2018-09-05T09:21:52.530Z,6.50
2018-09-05T09:24:20.822Z,7.40
2018-09-05T09:26:49.085Z,7.07
2018-09-05T09:29:17.365Z,6.60
2018-09-05T09:31:45.665Z,7.23
2018-09-05T09:34:14.050Z,6.57
2018-09-05T09:36:42.359Z,7.63
2018-09-05T09:39:11.477Z,6.70
2018-09-05T09:41:39.864Z,6.57
2018-09-05T09:44:08.177Z,5.73
2018-09-05T09:46:36.913Z,6.23
2018-09-05T09:49:05.130Z,6.10
2018-09-05T09:51:33.388Z,6.40
2018-09-05T09:54:01.682Z,6.00
2018-09-05T09:56:29.935Z,6.57
2018-09-05T09:58:58.247Z,6.10
2018-09-05T10:01:31.837Z,6.50
2018-09-05T10:04:05.454Z,6.30
2018-09-05T10:06:39.118Z,6.23
2018-09-05T10:09:13.530Z,6.30
2018-09-05T10:11:47.471Z,5.97
2018-09-05T10:14:21.193Z,5.67
2018-09-05T10:16:54.920Z,5.50
2018-09-05T10:19:23.213Z,5.23
2018-09-05T10:21:53.569Z,4.83
2018-09-05T10:24:21.857Z,4.70
2018-09-05T10:26:50.118Z,5.12
2018-09-05T10:29:18.409Z,5.12
2018-09-05T10:31:46.730Z,4.87
2018-09-05T10:34:14.911Z,4.83
2018-09-05T10:36:43.209Z,5.05
2018-09-05T10:39:11.692Z,5.53
2018-09-05T10:41:40.249Z,4.45
2018-09-05T10:44:09.058Z,4.25
2018-09-05T10:46:37.753Z,4.58
2018-09-05T10:49:06.073Z,4.85
2018-09-05T10:51:39.677Z,4.80
2018-09-05T10:54:08.135Z,4.80
2018-09-05T10:56:36.433Z,4.20
2018-09-05T10:59:04.747Z,4.47
2018-09-05T11:01:33.030Z,5.40
2018-09-05T11:04:01.351Z,4.20
2018-09-05T11:06:29.615Z,4.53
2018-09-05T11:08:57.857Z,4.33
2018-09-05T11:11:26.113Z,4.37
2018-09-05T11:13:54.564Z,3.55
2018-09-05T11:16:22.925Z,4.30
2018-09-05T11:18:51.305Z,4.17
2018-09-05T11:21:19.590Z,4.05
2018-09-05T11:23:47.773Z,3.98
2018-09-05T11:26:16.027Z,4.10
2018-09-05T11:28:44.317Z,3.87
2018-09-05T11:31:13.066Z,3.85
2018-09-05T11:33:41.370Z,4.03
2018-09-05T11:36:09.621Z,3.98
2018-09-05T11:38:37.954Z,3.72
2018-09-05T11:41:06.263Z,4.03
2018-09-05T11:43:34.512Z,4.03
2018-09-05T11:46:02.775Z,3.92
2018-09-05T11:48:31.254Z,4.00
2018-09-05T11:50:59.893Z,3.83
2018-09-05T11:53:28.363Z,3.98
2018-09-05T11:55:56.642Z,3.80
2018-09-05T11:58:24.881Z,3.67
2018-09-05T12:00:53.176Z,3.80
2018-09-05T12:03:21.421Z,3.77
2018-09-05T12:05:49.653Z,3.60
2018-09-05T12:08:17.905Z,3.58
2018-09-05T12:10:46.222Z,3.70
2018-09-05T12:13:14.449Z,3.95
2018-09-05T12:15:43.779Z,3.65
2018-09-05T12:18:11.889Z,3.90
2018-09-05T12:20:40.158Z,3.58
2018-09-05T12:23:08.473Z,3.98
2018-09-05T12:25:37.093Z,3.77
2018-09-05T12:28:05.364Z,3.70
2018-09-05T12:30:33.601Z,3.58
2018-09-05T12:33:01.878Z,3.60
2018-09-05T12:35:30.145Z,3.60
2018-09-05T12:37:58.405Z,3.22
2018-09-05T12:40:26.677Z,3.30
2018-09-05T12:42:54.942Z,3.83
2018-09-05T12:45:23.179Z,3.47
2018-09-05T12:47:51.433Z,3.72
2018-09-05T12:50:19.681Z,3.45
2018-09-05T12:52:47.957Z,3.50
2018-09-05T12:55:16.236Z,3.87
2018-09-05T12:57:44.518Z,3.47
2018-09-05T13:00:12.903Z,4.00
2018-09-05T13:02:41.165Z,3.83
2018-09-05T13:05:09.532Z,3.98
2018-09-05T13:07:37.773Z,4.37
2018-09-05T13:10:06.090Z,3.45
2018-09-05T13:12:34.444Z,3.60
2018-09-05T13:15:02.677Z,3.58
2018-09-05T13:17:30.973Z,3.95
2018-09-05T13:19:59.262Z,3.37
2018-09-05T13:22:27.549Z,3.83
2018-09-05T13:24:55.757Z,3.72
2018-09-05T13:27:24.121Z,4.75
2018-09-05T13:29:52.362Z,3.85
2018-09-05T13:32:20.613Z,3.80
2018-09-05T13:34:48.850Z,3.70
2018-09-05T13:37:17.150Z,3.92
2018-09-05T13:39:45.599Z,3.70
2018-09-05T13:42:13.808Z,4.00
2018-09-05T13:44:42.079Z,3.83
2018-09-05T13:47:10.523Z,3.83
2018-09-05T13:49:38.978Z,3.67
2018-09-05T13:52:07.337Z,3.60
2018-09-05T13:54:36.897Z,3.83
2018-09-05T13:57:05.213Z,4.22
2018-09-05T13:59:33.561Z,4.12
2018-09-05T14:02:01.847Z,3.80
2018-09-05T14:04:30.210Z,3.60
2018-09-05T14:06:58.519Z,3.67
2018-09-05T14:09:26.808Z,3.77
2018-09-05T14:11:55.065Z,3.72
2018-09-05T14:14:27.105Z,4.15
2018-09-05T14:16:55.505Z,5.08
2018-09-05T14:19:30.327Z,4.20
2018-09-05T14:21:58.598Z,3.95
2018-09-05T14:24:26.906Z,3.80
2018-09-05T14:26:55.153Z,4.65
2018-09-05T14:29:23.574Z,3.95
2018-09-05T14:31:51.913Z,4.37
2018-09-05T14:34:20.190Z,4.87
2018-09-05T14:36:48.429Z,5.50
2018-09-05T14:39:16.698Z,5.03
2018-09-05T14:41:45.133Z,4.33
2018-09-05T14:44:15.186Z,4.67
2018-09-05T14:46:43.499Z,3.77
2018-09-05T14:49:11.821Z,4.22
2018-09-05T14:51:40.061Z,3.60
2018-09-05T14:54:08.353Z,4.25
2018-09-05T14:56:36.614Z,5.10
2018-09-05T14:59:04.879Z,3.77
2018-09-05T15:01:33.177Z,4.58
2018-09-05T15:04:01.533Z,4.17
2018-09-05T15:06:29.823Z,3.85
2018-09-05T15:08:58.021Z,4.83
2018-09-05T15:11:26.274Z,4.67
2018-09-05T15:13:54.580Z,4.28
2018-09-05T15:16:22.951Z,4.62
2018-09-05T15:18:51.318Z,3.70
2018-09-05T15:21:19.624Z,5.55
2018-09-05T15:23:47.961Z,3.50
2018-09-05T15:26:16.277Z,4.00
2018-09-05T15:28:44.632Z,3.95
2018-09-05T15:31:12.923Z,26.80
2018-09-05T15:33:41.212Z,32.88
2018-09-05T15:36:09.489Z,19.47
2018-09-05T15:38:37.781Z,10.10
2018-09-05T15:41:06.146Z,8.10
2018-09-05T15:43:34.401Z,5.60
2018-09-05T15:46:02.707Z,4.60
2018-09-05T15:48:30.964Z,4.50
2018-09-05T15:50:59.410Z,4.70
2018-09-05T15:53:27.797Z,5.03
2018-09-05T15:55:56.033Z,4.00
2018-09-05T15:58:24.540Z,3.57
2018-09-05T16:00:52.869Z,3.63
2018-09-05T16:03:21.134Z,5.47
2018-09-05T16:05:49.384Z,4.27
2018-09-05T16:08:17.660Z,4.10
2018-09-05T16:10:45.881Z,3.97
2018-09-05T16:13:14.286Z,4.17
2018-09-05T16:15:42.704Z,6.43
2018-09-05T16:18:10.831Z,4.50
2018-09-05T16:20:39.689Z,4.97
2018-09-05T16:23:07.985Z,5.10
2018-09-05T16:25:36.252Z,5.10
2018-09-05T16:28:04.637Z,4.97
2018-09-05T16:30:33.021Z,5.20
2018-09-05T16:33:01.274Z,4.90
2018-09-05T16:35:29.650Z,4.80
2018-09-05T16:37:57.938Z,4.60
2018-09-05T16:40:26.405Z,5.90
2018-09-05T16:42:54.677Z,6.20
2018-09-05T16:45:22.960Z,4.67
2018-09-05T16:47:51.235Z,5.63
2018-09-05T16:50:19.526Z,5.20
2018-09-05T16:52:47.787Z,4.90
2018-09-05T16:55:16.197Z,5.83
2018-09-05T16:57:44.468Z,4.53
2018-09-05T17:00:12.743Z,4.67
2018-09-05T17:02:40.987Z,4.90
2018-09-05T17:05:09.264Z,4.77
2018-09-05T17:07:37.556Z,4.23
2018-09-05T17:10:05.840Z,4.90
2018-09-05T17:12:34.202Z,4.90
2018-09-05T17:15:02.470Z,5.23
2018-09-05T17:17:30.749Z,4.73
2018-09-05T17:19:59.042Z,4.47
2018-09-05T17:22:27.249Z,5.80
2018-09-05T17:24:55.471Z,5.43
2018-09-05T17:27:23.697Z,4.73
2018-09-05T17:29:52.130Z,5.27
2018-09-05T17:32:20.358Z,5.23
2018-09-05T17:34:48.577Z,5.63
2018-09-05T17:37:16.810Z,4.53
2018-09-05T17:39:45.057Z,5.93
2018-09-05T17:42:13.341Z,5.27
2018-09-05T17:44:41.641Z,4.20
2018-09-05T17:47:09.916Z,4.80
2018-09-05T17:49:38.198Z,4.63
2018-09-05T17:52:06.539Z,5.17
2018-09-05T17:54:34.822Z,4.80
2018-09-05T17:57:03.157Z,4.40
2018-09-05T17:59:31.383Z,4.80
2018-09-05T18:01:59.709Z,5.10
2018-09-05T18:04:27.925Z,5.13
2018-09-05T18:06:56.185Z,5.00
2018-09-05T18:09:24.443Z,5.00
2018-09-05T18:11:52.814Z,4.67
2018-09-05T18:14:21.056Z,4.10
2018-09-05T18:16:49.513Z,4.63
2018-09-05T18:19:17.751Z,4.50
2018-09-05T18:21:46.013Z,5.70
2018-09-05T18:24:14.253Z,4.50
2018-09-05T18:26:42.463Z,5.00
2018-09-05T18:29:10.785Z,4.50
2018-09-05T18:31:38.992Z,4.33
2018-09-05T18:34:07.503Z,4.50
2018-09-05T18:36:35.809Z,4.67
2018-09-05T18:39:05.542Z,4.20
2018-09-05T18:41:33.783Z,4.63
2018-09-05T18:44:02.021Z,4.37
2018-09-05T18:46:30.293Z,4.10
2018-09-05T18:48:58.568Z,4.60
2018-09-05T18:51:26.837Z,4.70
2018-09-05T18:53:55.079Z,4.43
2018-09-05T18:56:23.378Z,4.40
2018-09-05T18:58:51.642Z,4.77
2018-09-05T19:01:20.013Z,4.80
2018-09-05T19:03:48.305Z,5.07
2018-09-05T19:06:16.670Z,4.80
2018-09-05T19:08:44.945Z,4.83
2018-09-05T19:11:13.345Z,4.20
2018-09-05T19:13:41.829Z,4.50
2018-09-05T19:16:10.053Z,4.63
2018-09-05T19:18:38.339Z,4.43
2018-09-05T19:21:06.610Z,6.23
2018-09-05T19:23:37.780Z,4.40
2018-09-05T19:26:06.264Z,4.60
2018-09-05T19:28:34.729Z,5.93
2018-09-05T19:31:02.999Z,6.03
2018-09-05T19:33:31.443Z,5.40
2018-09-05T19:35:59.701Z,5.20
2018-09-05T19:38:28.019Z,4.80
2018-09-05T19:40:56.645Z,5.10
2018-09-05T19:43:24.893Z,6.20
2018-09-05T19:45:55.270Z,5.10
2018-09-05T19:48:23.514Z,4.80
2018-09-05T19:50:51.865Z,6.53
2018-09-05T19:53:20.096Z,4.93
2018-09-05T19:55:48.363Z,5.37
2018-09-05T19:58:16.657Z,5.43
2018-09-05T20:00:44.941Z,4.87
2018-09-05T20:03:13.291Z,5.43
2018-09-05T20:05:41.651Z,7.07
2018-09-05T20:08:09.924Z,5.50
2018-09-05T20:10:38.228Z,4.83
2018-09-05T20:13:07.134Z,5.30
2018-09-05T20:15:35.512Z,4.63
2018-09-05T20:18:03.836Z,4.77
2018-09-05T20:20:32.284Z,7.90
2018-09-05T20:23:00.545Z,5.20
2018-09-05T20:25:28.826Z,5.33
2018-09-05T20:27:57.121Z,5.27
2018-09-05T20:30:25.548Z,5.47
2018-09-05T20:32:53.884Z,5.90
2018-09-05T20:35:22.181Z,5.90
2018-09-05T20:37:50.429Z,5.17
2018-09-05T20:40:18.840Z,5.50
2018-09-05T20:42:47.594Z,6.17
2018-09-05T20:45:16.047Z,5.33
2018-09-05T20:47:44.682Z,5.70
2018-09-05T20:50:13.778Z,5.70
2018-09-05T20:52:42.050Z,5.50
2018-09-05T20:55:10.432Z,5.93
2018-09-05T20:57:38.747Z,5.47
2018-09-05T21:00:09.659Z,5.70
2018-09-05T21:02:38.038Z,6.17
2018-09-05T21:05:06.394Z,5.93
2018-09-05T21:07:34.724Z,5.73
2018-09-05T21:10:03.000Z,5.77
2018-09-05T21:12:31.464Z,5.87
2018-09-05T21:14:59.748Z,5.53
2018-09-05T21:17:28.035Z,6.13
2018-09-05T21:19:56.281Z,5.63
2018-09-05T21:22:24.680Z,5.50
2018-09-05T21:24:52.957Z,5.50
2018-09-05T21:27:21.247Z,5.90
2018-09-05T21:29:49.696Z,6.03
2018-09-05T21:32:18.009Z,6.03
2018-09-05T21:34:46.489Z,5.60
2018-09-05T21:37:14.755Z,5.47
2018-09-05T21:39:43.372Z,5.53
2018-09-05T21:42:11.649Z,5.83
2018-09-05T21:44:40.328Z,5.93
2018-09-05T21:47:08.636Z,5.60
2018-09-05T21:49:36.998Z,5.97
2018-09-05T21:52:05.416Z,5.90
2018-09-05T21:54:34.261Z,6.37
2018-09-05T21:57:02.533Z,5.93
2018-09-05T21:59:30.813Z,5.57
2018-09-05T22:01:59.081Z,5.50
2018-09-05T22:04:27.364Z,6.10
2018-09-05T22:06:55.685Z,6.03
2018-09-05T22:09:24.061Z,6.03
2018-09-05T22:11:52.328Z,6.03
2018-09-05T22:14:20.586Z,6.20
2018-09-05T22:16:48.817Z,5.80
2018-09-05T22:19:17.144Z,5.50
2018-09-05T22:21:45.524Z,6.07
2018-09-05T22:24:13.912Z,6.03
2018-09-05T22:26:42.144Z,6.53
2018-09-05T22:29:10.465Z,6.40
2018-09-05T22:31:38.833Z,6.20
2018-09-05T22:34:07.187Z,5.53
2018-09-05T22:36:35.545Z,6.13
2018-09-05T22:39:04.702Z,6.40
2018-09-05T22:41:32.978Z,6.50
2018-09-05T22:44:12.547Z,6.37
2018-09-05T22:46:52.213Z,6.10
2018-09-05T22:50:09.490Z,6.30
2018-09-05T22:53:24.462Z,5.73
2018-09-05T22:58:19.631Z,6.37
2018-09-05T23:03:00.846Z,5.70
2018-09-05T23:07:53.143Z,6.23
2018-09-05T23:10:32.770Z,6.10
2018-09-05T23:13:12.326Z,5.90
2018-09-05T23:15:51.800Z,6.23
2018-09-05T23:18:43.110Z,6.40
2018-09-05T23:21:22.108Z,6.33
2018-09-05T23:23:58.641Z,5.47
2018-09-05T23:26:27.060Z,6.57
2018-09-05T23:28:55.391Z,6.83
2018-09-05T23:31:24.088Z,5.93
2018-09-05T23:33:52.602Z,6.50
2018-09-05T23:36:21.843Z,6.27
2018-09-05T23:38:50.196Z,6.80
2018-09-05T23:41:18.527Z,6.60
2018-09-05T23:43:46.796Z,5.87
2018-09-05T23:46:15.042Z,6.67
2018-09-05T23:48:43.285Z,5.80
2018-09-05T23:51:11.590Z,6.03
2018-09-05T23:53:40.010Z,5.60
2018-09-05T23:56:08.258Z,6.30
2018-09-05T23:58:36.559Z,6.13
